Davenport, Iowa
Current Conditions -  °F | °C
As of 6:52 PM on Tuesday 21 Oct 2014 (Local Time) from KDVN Reporting Station
Clear Clear  
Wind Chill: 45°   Ceiling: Unl
Heat Index: 48°   Visibility: 10mi
Dew Point: 36°   Wind: 7mph
Humidity: 63%   Direction: 80°E
Pressure: 30.2"   Gusts: NA
Location:  41.54°N, 90.58°W
Report Text: KDVN 212352Z AUTO 08006KT 10SM CLR 09/02 A3020 RMK AO2 SLP233 T00890022 10144 20089 53012 TSNO
Loading
Personal Weather Stations






























Interactive Weather Map New forecast layout! Learn more

10-Day Weather Forecast

Advertisements
Track Severe Weather on mobile